Time;durP1;ratioP1;P1;durP2;ratioP2;P2;SDS_P1;SDS_P2;PMS_P1;PMS_P2;Temp;Humidity;BMP_temperature;BMP_pressure;BME280_temperature;BME280_humidity;BME280_pressure;Samples;Min_cycle;Max_cycle;Signal;HPM_P1;HPM_P2
2021/04/15 00:02:07;;;;;;;2.33;0.60;;;19.40;31.60;;;;;;5075718;28;20067;-67
2021/04/15 00:04:33;;;;;;;2.15;0.68;;;19.40;31.70;;;;;;5077452;28;20119;-67
2021/04/15 00:06:58;;;;;;;1.25;0.60;;;19.40;31.70;;;;;;5077308;28;20111;-67
2021/04/15 00:09:24;;;;;;;1.48;0.60;;;19.40;31.70;;;;;;5077087;28;20029;-67
2021/04/15 00:11:51;;;;;;;1.83;0.60;;;19.40;31.70;;;;;;5077302;28;20387;-67
2021/04/15 00:14:20;;;;;;;1.58;0.55;;;19.40;31.70;;;;;;5076947;28;20502;-67
2021/04/15 00:16:46;;;;;;;1.25;0.80;;;19.40;31.70;;;;;;5077041;28;20452;-67
2021/04/15 00:19:15;;;;;;;0.88;0.60;;;19.30;31.70;;;;;;5076907;28;20047;-67
2021/04/15 00:21:41;;;;;;;0.93;0.60;;;19.40;31.70;;;;;;5076568;28;20415;-67
2021/04/15 00:24:07;;;;;;;2.53;0.82;;;19.30;31.70;;;;;;5076796;28;20025;-67
2021/04/15 00:26:32;;;;;;;1.95;0.60;;;19.30;31.70;;;;;;5077227;28;20029;-67
2021/04/15 00:28:58;;;;;;;1.90;0.70;;;19.30;31.70;;;;;;5076608;28;20025;-67
2021/04/15 00:31:25;;;;;;;1.98;0.63;;;19.30;31.70;;;;;;5076744;28;20052;-67
2021/04/15 00:33:51;;;;;;;1.45;0.50;;;19.30;31.70;;;;;;5076653;28;20395;-67
2021/04/15 00:36:17;;;;;;;1.05;0.50;;;19.30;31.70;;;;;;5077134;28;20029;-67
2021/04/15 00:38:43;;;;;;;1.73;0.60;;;19.30;31.70;;;;;;5076600;28;20040;-67
2021/04/15 00:41:10;;;;;;;1.33;0.50;;;19.30;31.70;;;;;;5076430;28;20487;-67
2021/04/15 00:43:39;;;;;;;1.65;0.55;;;19.30;31.70;;;;;;5076906;28;20380;-67
2021/04/15 00:46:19;;;;;;;1.70;0.73;;;19.30;31.70;;;;;;5076898;28;20111;-67
2021/04/15 00:48:45;;;;;;;1.42;0.63;;;19.30;31.70;;;;;;5076811;28;20012;-67
2021/04/15 00:51:32;;;;;;;2.38;0.73;;;19.30;31.70;;;;;;5082488;28;20084;-67
2021/04/15 00:54:26;;;;;;;2.00;0.50;;;19.30;31.70;;;;;;5077713;28;20433;-67
2021/04/15 00:56:52;;;;;;;1.17;0.50;;;19.30;31.70;;;;;;5070693;28;20500;-67
2021/04/15 00:59:18;;;;;;;2.22;1.38;;;19.20;31.70;;;;;;5076192;28;20046;-67
2021/04/15 01:01:43;;;;;;;1.52;0.57;;;19.20;31.70;;;;;;5076652;28;20029;-67
2021/04/15 01:04:09;;;;;;;1.67;0.70;;;19.20;31.70;;;;;;5076623;28;20059;-67
2021/04/15 01:06:36;;;;;;;1.83;0.60;;;19.30;31.70;;;;;;5076246;28;20116;-67
2021/04/15 01:09:02;;;;;;;1.02;0.60;;;19.30;31.70;;;;;;5075992;28;20025;-67
2021/04/15 01:11:45;;;;;;;1.55;0.50;;;19.20;31.70;;;;;;5076444;28;20024;-67
2021/04/15 01:14:19;;;;;;;2.45;0.63;;;19.20;31.70;;;;;;5074792;28;20101;-67
2021/04/15 01:16:50;;;;;;;2.17;0.60;;;19.30;31.70;;;;;;5076590;28;20048;-67
2021/04/15 01:19:54;;;;;;;1.17;0.50;;;19.20;31.70;;;;;;5075953;28;20044;-67
2021/04/15 01:22:49;;;;;;;0.90;0.40;;;19.20;31.80;;;;;;5076112;28;20406;-67
2021/04/15 01:25:39;;;;;;;1.33;0.50;;;19.20;31.80;;;;;;5075903;28;20028;-67
2021/04/15 01:28:20;;;;;;;1.38;0.60;;;19.20;31.80;;;;;;5076023;28;20375;-67
2021/04/15 01:30:56;;;;;;;1.13;0.63;;;19.20;31.80;;;;;;5076129;28;20013;-67
2021/04/15 01:33:25;;;;;;;0.88;0.50;;;19.20;31.80;;;;;;5075849;28;20464;-67
2021/04/15 01:36:00;;;;;;;1.08;0.63;;;19.20;31.80;;;;;;5075767;28;20048;-67
2021/04/15 01:38:41;;;;;;;1.73;0.63;;;19.20;31.70;;;;;;5075830;28;20017;-68
2021/04/15 01:41:16;;;;;;;1.20;0.60;;;19.20;31.70;;;;;;5076255;28;20029;-68
2021/04/15 01:43:52;;;;;;;1.80;0.60;;;19.20;31.80;;;;;;5074134;28;20024;-67
2021/04/15 01:46:19;;;;;;;1.10;0.50;;;19.20;31.70;;;;;;5075443;28;20032;-67
2021/04/15 01:48:48;;;;;;;1.15;0.55;;;19.20;31.70;;;;;;5074934;28;20035;-67
2021/04/15 01:51:19;;;;;;;1.80;0.47;;;19.20;31.70;;;;;;5075340;28;20077;-67
2021/04/15 01:53:55;;;;;;;0.63;0.50;;;19.20;31.70;;;;;;5075709;28;20033;-67
2021/04/15 01:56:34;;;;;;;1.77;0.70;;;19.20;31.70;;;;;;5075790;28;20449;-67
2021/04/15 01:59:11;;;;;;;1.23;0.57;;;19.20;31.80;;;;;;5075491;28;20127;-67
2021/04/15 02:01:51;;;;;;;1.35;0.65;;;19.20;31.70;;;;;;5075530;28;20086;-67
2021/04/15 02:04:22;;;;;;;3.10;0.70;;;19.20;31.80;;;;;;5075387;28;20111;-67
2021/04/15 02:06:57;;;;;;;1.58;0.68;;;19.10;31.80;;;;;;5075311;28;20086;-67
2021/04/15 02:09:23;;;;;;;2.15;0.50;;;19.20;31.80;;;;;;5074960;28;20047;-67
2021/04/15 02:12:15;;;;;;;1.70;0.70;;;19.10;31.80;;;;;;5076786;28;20368;-67
2021/04/15 02:14:43;;;;;;;1.00;0.50;;;19.20;31.80;;;;;;5077208;28;20025;-67
2021/04/15 02:17:11;;;;;;;1.83;0.70;;;19.10;31.80;;;;;;5078679;28;20029;-67
2021/04/15 02:19:44;;;;;;;1.38;0.65;;;19.10;31.80;;;;;;5077922;28;20044;-67
2021/04/15 02:22:31;;;;;;;0.63;0.40;;;19.10;31.80;;;;;;5077368;28;20638;-67
2021/04/15 02:25:03;;;;;;;2.20;0.88;;;19.10;31.80;;;;;;5074771;28;20111;-66
2021/04/15 02:27:44;;;;;;;1.58;0.57;;;19.10;31.80;;;;;;5074964;28;20083;-66
2021/04/15 02:30:20;;;;;;;1.35;0.70;;;19.10;31.80;;;;;;5074814;28;20047;-67
2021/04/15 02:33:11;;;;;;;3.10;0.73;;;19.10;31.80;;;;;;5074054;28;20021;-67
2021/04/15 02:35:46;;;;;;;2.28;0.80;;;19.10;31.80;;;;;;5074305;28;20029;-67
2021/04/15 02:38:14;;;;;;;1.75;0.70;;;19.10;31.80;;;;;;5072914;28;20028;-67
2021/04/15 02:40:56;;;;;;;1.88;0.70;;;19.10;31.80;;;;;;5074188;28;20423;-67
2021/04/15 02:43:35;;;;;;;2.05;0.65;;;19.10;31.80;;;;;;5074134;28;20104;-67
2021/04/15 02:46:08;;;;;;;2.25;0.50;;;19.10;31.80;;;;;;5073999;28;20012;-66
2021/04/15 02:48:37;;;;;;;1.73;0.60;;;19.10;31.80;;;;;;5073930;28;20031;-67
2021/04/15 02:51:14;;;;;;;1.73;0.60;;;19.00;31.80;;;;;;5074000;28;20415;-67
2021/04/15 02:53:46;;;;;;;1.50;0.57;;;19.10;31.80;;;;;;5072323;28;20025;-68
2021/04/15 02:56:21;;;;;;;1.52;0.52;;;19.00;31.80;;;;;;5073691;28;20021;-67
2021/04/15 02:59:06;;;;;;;1.27;0.73;;;19.00;31.80;;;;;;5073681;28;20507;-66
2021/04/15 03:01:39;;;;;;;1.92;0.63;;;19.00;31.80;;;;;;5073706;28;20440;-67
2021/04/15 03:04:10;;;;;;;0.95;0.60;;;19.00;31.80;;;;;;5073873;28;20048;-67
2021/04/15 03:06:36;;;;;;;2.42;0.70;;;19.00;31.80;;;;;;5073674;28;20028;-67
2021/04/15 03:09:07;;;;;;;1.20;0.60;;;19.00;31.80;;;;;;5073801;28;20056;-67
2021/04/15 03:11:47;;;;;;;0.98;0.50;;;19.00;31.80;;;;;;5073951;28;20028;-67
2021/04/15 03:14:19;;;;;;;2.83;1.00;;;19.00;31.80;;;;;;5073634;28;20024;-67
2021/04/15 03:16:49;;;;;;;1.70;0.63;;;19.00;31.80;;;;;;5073891;28;20039;-67
2021/04/15 03:19:21;;;;;;;2.90;0.60;;;19.00;31.80;;;;;;5073547;28;20032;-67
2021/04/15 03:22:03;;;;;;;2.92;0.90;;;19.00;31.80;;;;;;5073611;28;20044;-67
2021/04/15 03:24:47;;;;;;;1.73;0.50;;;19.00;31.70;;;;;;5073666;28;20033;-67
2021/04/15 03:27:34;;;;;;;1.90;0.60;;;19.00;31.80;;;;;;5073596;28;20021;-67
2021/04/15 03:30:19;;;;;;;1.80;0.80;;;19.00;31.80;;;;;;5073330;28;20031;-67
2021/04/15 03:32:53;;;;;;;2.88;0.60;;;19.00;31.80;;;;;;5073612;28;20373;-67
2021/04/15 03:35:33;;;;;;;0.52;0.43;;;19.00;31.80;;;;;;5072749;28;20029;-67
2021/04/15 03:38:07;;;;;;;2.25;0.80;;;19.00;31.80;;;;;;5073329;28;20024;-67
2021/04/15 03:40:34;;;;;;;2.10;0.75;;;19.00;31.80;;;;;;5073377;28;20059;-67
2021/04/15 03:43:14;;;;;;;2.25;0.82;;;19.00;31.80;;;;;;5073134;28;20032;-66
2021/04/15 03:45:48;;;;;;;1.17;0.52;;;19.00;31.80;;;;;;5073350;28;20067;-67
2021/04/15 03:48:18;;;;;;;0.93;0.47;;;19.00;31.80;;;;;;5076412;28;20032;-67
2021/04/15 03:50:59;;;;;;;1.92;0.63;;;18.90;31.80;;;;;;5073475;28;20024;-67
2021/04/15 03:53:29;;;;;;;1.73;0.70;;;18.90;31.80;;;;;;5073057;28;20059;-67
2021/04/15 03:56:02;;;;;;;1.17;0.65;;;19.00;31.80;;;;;;5073300;28;20096;-67
2021/04/15 03:58:38;;;;;;;1.85;0.90;;;19.00;31.80;;;;;;5072999;28;20085;-67
2021/04/15 04:01:07;;;;;;;2.90;0.73;;;18.90;31.80;;;;;;5073187;28;20111;-67
2021/04/15 04:03:36;;;;;;;2.50;0.85;;;18.90;31.80;;;;;;5073211;28;20021;-67
2021/04/15 04:06:23;;;;;;;2.55;0.88;;;18.90;31.70;;;;;;5074194;28;20025;-67
2021/04/15 04:08:50;;;;;;;2.17;0.77;;;18.90;31.70;;;;;;5075878;28;20028;-67
2021/04/15 04:11:19;;;;;;;2.15;0.70;;;18.90;31.80;;;;;;5073130;28;20025;-67
2021/04/15 04:13:53;;;;;;;2.38;0.85;;;18.90;31.70;;;;;;5072815;28;20020;-67
2021/04/15 04:16:27;;;;;;;1.27;0.70;;;18.90;31.70;;;;;;5073341;28;20029;-66
2021/04/15 04:19:02;;;;;;;1.20;0.60;;;19.00;31.70;;;;;;5073815;28;20189;-67
2021/04/15 04:21:37;;;;;;;2.35;0.75;;;19.00;31.70;;;;;;5072861;28;20639;-67
2021/04/15 04:24:21;;;;;;;1.90;0.60;;;19.00;31.60;;;;;;5073068;28;20060;-67
2021/04/15 04:27:09;;;;;;;1.52;0.68;;;19.10;31.60;;;;;;5072985;28;20064;-67
2021/04/15 04:29:50;;;;;;;2.00;0.75;;;19.10;31.60;;;;;;5073377;28;20380;-67
2021/04/15 04:32:18;;;;;;;2.30;0.85;;;19.10;31.50;;;;;;5072927;28;20063;-66
2021/04/15 04:34:50;;;;;;;2.83;0.60;;;19.10;31.60;;;;;;5072637;28;20055;-67
2021/04/15 04:37:16;;;;;;;2.42;0.90;;;19.20;31.50;;;;;;5073029;28;20035;-67
2021/04/15 04:39:42;;;;;;;2.10;0.70;;;19.20;31.50;;;;;;5072529;28;20037;-67
2021/04/15 04:42:27;;;;;;;2.10;0.70;;;19.20;31.50;;;;;;5072776;28;20025;-67
2021/04/15 04:44:58;;;;;;;2.22;0.73;;;19.20;31.50;;;;;;5072608;28;20516;-67
2021/04/15 04:47:55;;;;;;;2.50;0.80;;;19.20;31.50;;;;;;5073940;28;20021;-68
2021/04/15 04:50:24;;;;;;;2.95;0.73;;;19.30;31.40;;;;;;5076505;28;20113;-67
2021/04/15 04:53:05;;;;;;;1.73;0.52;;;19.30;31.50;;;;;;5076256;28;20024;-67
2021/04/15 04:55:49;;;;;;;1.58;0.68;;;19.30;31.40;;;;;;5076372;28;20146;-67
2021/04/15 04:58:18;;;;;;;1.25;0.70;;;19.30;31.40;;;;;;5076047;28;20032;-67
2021/04/15 05:00:52;;;;;;;1.90;0.80;;;19.30;31.40;;;;;;5075905;28;20071;-67
2021/04/15 05:03:26;;;;;;;2.53;0.73;;;19.40;31.40;;;;;;5076240;28;20036;-67
2021/04/15 05:06:09;;;;;;;3.08;0.88;;;19.40;31.30;;;;;;5076296;28;20086;-67
2021/04/15 05:08:47;;;;;;;2.97;1.10;;;19.40;31.30;;;;;;5076116;28;20111;-67
2021/04/15 05:11:13;;;;;;;2.10;0.70;;;19.40;31.30;;;;;;5075926;28;20035;-67
2021/04/15 05:13:40;;;;;;;2.83;1.00;;;19.40;31.30;;;;;;5076157;28;20430;-67
2021/04/15 05:16:05;;;;;;;1.67;0.70;;;19.40;31.30;;;;;;5076216;28;20032;-67
2021/04/15 05:18:31;;;;;;;2.72;1.00;;;19.50;31.30;;;;;;5075762;28;20459;-68
2021/04/15 05:21:08;;;;;;;3.20;1.10;;;19.50;31.30;;;;;;5075515;28;20048;-67
2021/04/15 05:23:41;;;;;;;1.77;0.88;;;19.50;31.30;;;;;;5075946;28;20063;-67
2021/04/15 05:26:09;;;;;;;3.50;0.88;;;19.50;31.30;;;;;;5075968;28;20024;-67
2021/04/15 05:28:37;;;;;;;1.85;0.65;;;19.50;31.30;;;;;;5075814;28;20021;-67
2021/04/15 05:31:05;;;;;;;2.72;0.82;;;19.50;31.30;;;;;;5075501;28;20104;-67
2021/04/15 05:33:33;;;;;;;2.95;0.85;;;19.50;31.30;;;;;;5075275;28;20029;-67
2021/04/15 05:36:23;;;;;;;2.05;0.82;;;19.50;31.20;;;;;;5075643;28;20108;-67
2021/04/15 05:38:51;;;;;;;1.60;0.90;;;19.50;31.30;;;;;;5075585;28;20037;-68
2021/04/15 05:41:30;;;;;;;2.42;0.82;;;19.50;31.30;;;;;;5075065;28;20021;-68
2021/04/15 05:43:58;;;;;;;1.80;0.70;;;19.50;31.20;;;;;;5075137;28;20480;-67
2021/04/15 05:46:29;;;;;;;1.90;0.80;;;19.50;31.20;;;;;;5075286;28;20107;-67
2021/04/15 05:49:01;;;;;;;1.63;0.80;;;19.60;31.20;;;;;;5075234;28;20465;-68
2021/04/15 05:51:31;;;;;;;4.25;0.70;;;19.60;31.30;;;;;;5075422;28;20107;-68
2021/04/15 05:54:05;;;;;;;2.08;0.77;;;19.60;31.20;;;;;;5075563;28;20024;-68
2021/04/15 05:56:38;;;;;;;1.75;0.70;;;19.60;31.20;;;;;;5075289;28;20020;-67
2021/04/15 05:59:31;;;;;;;2.47;0.90;;;19.60;31.20;;;;;;5074422;28;20035;-68
2021/04/15 06:02:11;;;;;;;1.83;0.70;;;19.70;31.30;;;;;;5074837;28;20025;-67
2021/04/15 06:04:42;;;;;;;4.15;0.95;;;19.60;31.20;;;;;;5073847;28;20361;-68
2021/04/15 06:07:13;;;;;;;3.33;0.70;;;19.60;31.20;;;;;;5074904;28;20017;-68
2021/04/15 06:09:39;;;;;;;3.55;0.93;;;19.60;31.20;;;;;;5074985;28;20020;-68
2021/04/15 06:12:15;;;;;;;2.03;0.80;;;19.70;31.20;;;;;;5075011;28;20368;-68
2021/04/15 06:14:48;;;;;;;2.30;0.90;;;19.70;31.20;;;;;;5075299;28;20037;-68
2021/04/15 06:17:22;;;;;;;3.60;0.80;;;19.70;31.20;;;;;;5074544;28;20108;-68
2021/04/15 06:19:52;;;;;;;3.35;0.85;;;19.70;31.20;;;;;;5074701;28;20488;-68
2021/04/15 06:22:25;;;;;;;4.38;1.00;;;19.70;31.20;;;;;;5074589;28;20052;-68
2021/04/15 06:25:05;;;;;;;1.90;0.93;;;19.70;31.20;;;;;;5074939;28;20025;-68
2021/04/15 06:27:31;;;;;;;2.08;0.82;;;19.80;31.20;;;;;;5074763;28;20058;-68
2021/04/15 06:30:02;;;;;;;2.55;0.82;;;19.80;31.20;;;;;;5074500;28;20075;-68
2021/04/15 06:32:51;;;;;;;2.40;0.90;;;19.70;31.20;;;;;;5074306;28;20032;-69
2021/04/15 06:35:23;;;;;;;2.80;1.15;;;19.80;31.20;;;;;;5074429;28;20418;-68
2021/04/15 06:38:02;;;;;;;2.10;0.70;;;19.80;31.20;;;;;;5074635;28;20388;-68
2021/04/15 06:40:49;;;;;;;1.73;0.80;;;19.80;31.20;;;;;;5074509;28;20392;-68
2021/04/15 06:43:17;;;;;;;1.48;0.70;;;19.80;31.10;;;;;;5074153;28;20111;-68
2021/04/15 06:45:51;;;;;;;1.15;0.70;;;19.80;31.10;;;;;;5073974;28;20054;-68
2021/04/15 06:48:20;;;;;;;3.00;1.13;;;19.80;31.10;;;;;;5072571;28;20097;-68
2021/04/15 06:51:09;;;;;;;2.88;1.00;;;19.90;31.00;;;;;;5073859;28;20357;-68
2021/04/15 06:54:08;;;;;;;3.72;0.80;;;19.80;31.00;;;;;;5074628;28;20027;-68
2021/04/15 06:56:51;;;;;;;2.05;0.98;;;19.90;31.10;;;;;;5074067;28;20403;-68
2021/04/15 06:59:46;;;;;;;1.80;0.85;;;19.90;31.10;;;;;;5073769;28;20037;-70
2021/04/15 07:02:22;;;;;;;;;;;19.90;31.00;;;;;;5074067;28;20021;-69
2021/04/15 07:04:51;;;;;;;2.00;0.82;;;19.90;31.00;;;;;;5074229;28;19909;-69
2021/04/15 07:07:34;;;;;;;1.55;0.70;;;20.00;31.00;;;;;;5074395;28;20113;-69
2021/04/15 07:10:21;;;;;;;2.40;0.70;;;20.00;31.00;;;;;;5089800;28;20028;-70
2021/04/15 07:13:14;;;;;;;2.58;0.80;;;20.00;31.00;;;;;;5092997;28;20375;-70
2021/04/15 07:15:48;;;;;;;3.50;0.85;;;20.00;31.00;;;;;;5092829;28;20070;-68
2021/04/15 07:18:14;;;;;;;1.33;0.60;;;20.00;31.00;;;;;;5093982;28;20027;-69
2021/04/15 07:21:01;;;;;;;1.92;0.80;;;20.00;31.00;;;;;;5087976;28;20032;-68
2021/04/15 07:24:00;;;;;;;1.10;0.70;;;20.10;31.00;;;;;;5071945;28;20024;-71
2021/04/15 07:26:40;;;;;;;0.95;0.63;;;20.10;31.10;;;;;;5074382;28;20077;-70
2021/04/15 07:29:36;;;;;;;2.67;0.70;;;20.10;31.00;;;;;;5076201;28;20407;-71
2021/04/15 07:32:31;;;;;;;3.03;0.70;;;20.10;31.10;;;;;;5072848;28;20093;-69
2021/04/15 07:35:15;;;;;;;9.60;1.08;;;20.10;31.10;;;;;;5072501;28;20024;-68
2021/04/15 07:38:18;;;;;;;1.80;0.82;;;20.20;31.10;;;;;;5073083;28;20082;-68
2021/04/15 07:41:26;;;;;;;3.70;0.90;;;20.20;31.10;;;;;;5072635;28;20040;-68
2021/04/15 07:44:07;;;;;;;3.45;1.00;;;20.10;31.00;;;;;;5038524;28;20055;-69
2021/04/15 07:46:49;;;;;;;3.83;0.88;;;20.20;31.00;;;;;;5072559;28;20481;-68
2021/04/15 07:49:38;;;;;;;3.70;1.60;;;20.20;31.00;;;;;;5073029;28;20375;-65
2021/04/15 07:52:41;;;;;;;3.47;1.10;;;20.20;31.10;;;;;;5071912;28;20024;-65
2021/04/15 07:55:32;;;;;;;3.53;0.90;;;20.20;31.10;;;;;;5072069;28;20024;-64
2021/04/15 07:58:21;;;;;;;7.28;1.17;;;20.20;31.10;;;;;;5072736;28;20020;-64
2021/04/15 08:01:09;;;;;;;5.57;1.40;;;20.20;31.10;;;;;;5074102;28;20040;-68
2021/04/15 08:03:54;;;;;;;2.58;1.00;;;20.20;31.10;;;;;;5074087;28;20036;-68
2021/04/15 08:06:48;;;;;;;4.15;1.10;;;20.30;31.10;;;;;;5092602;28;20031;-65
2021/04/15 08:09:26;;;;;;;4.40;0.93;;;20.30;31.10;;;;;;5092785;28;20047;-69
2021/04/15 08:12:20;;;;;;;4.68;1.05;;;20.20;31.20;;;;;;5092160;28;20020;-70
2021/04/15 08:15:04;;;;;;;5.03;1.20;;;20.30;31.20;;;;;;5082814;28;20020;-66
2021/04/15 08:17:44;;;;;;;6.80;1.42;;;20.20;31.20;;;;;;5071866;28;20087;-66
2021/04/15 08:20:26;;;;;;;4.82;1.13;;;20.20;31.20;;;;;;5072090;28;20484;-67
2021/04/15 08:23:29;;;;;;;6.72;1.38;;;20.20;31.30;;;;;;5074065;28;20052;-67
2021/04/15 08:26:13;;;;;;;5.80;1.00;;;20.20;31.30;;;;;;5075968;28;20024;-66
2021/04/15 08:29:00;;;;;;;5.57;1.27;;;20.20;31.30;;;;;;5076128;28;20024;-66
2021/04/15 08:31:49;;;;;;;5.60;1.23;;;20.20;31.30;;;;;;5075519;28;20062;-67
2021/04/15 08:34:33;;;;;;;3.15;0.85;;;20.10;31.30;;;;;;5075887;28;20056;-65
2021/04/15 08:37:07;;;;;;;3.13;1.10;;;20.20;31.20;;;;;;5074263;28;20059;-66
2021/04/15 08:39:57;;;;;;;3.67;1.13;;;20.20;31.30;;;;;;5075842;28;20186;-66
2021/04/15 08:42:45;;;;;;;6.07;1.17;;;20.20;31.30;;;;;;5075273;28;20108;-67
2021/04/15 08:45:29;;;;;;;2.72;0.80;;;20.20;31.30;;;;;;5064983;28;20040;-66
2021/04/15 08:48:05;;;;;;;6.82;1.30;;;20.20;31.30;;;;;;5075176;28;20025;-67
2021/04/15 08:51:03;;;;;;;5.13;1.13;;;20.20;31.30;;;;;;5074429;28;20388;-66
2021/04/15 08:53:47;;;;;;;2.70;0.98;;;20.20;31.30;;;;;;5074503;28;20085;-65
2021/04/15 08:56:15;;;;;;;4.78;1.10;;;20.20;31.20;;;;;;5075717;28;20025;-66
2021/04/15 08:58:56;;;;;;;4.15;0.85;;;20.20;31.20;;;;;;5074449;28;20064;-66
2021/04/15 09:01:36;;;;;;;4.60;1.00;;;20.20;31.20;;;;;;5075048;28;20035;-66
2021/04/15 09:04:17;;;;;;;7.22;1.10;;;20.20;31.20;;;;;;5075276;28;20168;-65
2021/04/15 09:07:10;;;;;;;2.40;0.90;;;20.20;31.20;;;;;;5075557;28;20150;-66
2021/04/15 09:09:55;;;;;;;7.07;1.35;;;20.20;31.20;;;;;;5074861;28;20044;-66
2021/04/15 09:12:48;;;;;;;2.30;0.80;;;20.20;31.20;;;;;;5075418;28;20028;-65
2021/04/15 09:15:28;;;;;;;6.95;1.52;;;20.20;31.20;;;;;;5075860;28;20480;-66
2021/04/15 09:18:03;;;;;;;5.63;1.08;;;20.30;31.00;;;;;;5075262;28;20024;-64
2021/04/15 09:20:35;;;;;;;4.07;1.15;;;20.30;31.00;;;;;;5086718;28;20056;-67
2021/04/15 09:23:45;;;;;;;5.75;1.25;;;20.30;31.00;;;;;;5094398;28;20104;-69
2021/04/15 09:26:36;;;;;;;4.15;1.08;;;20.30;31.10;;;;;;5095762;28;20091;-66
2021/04/15 09:29:18;;;;;;;4.13;1.52;;;20.30;31.10;;;;;;5095449;28;20057;-65
2021/04/15 09:31:55;;;;;;;5.75;1.38;;;20.30;31.00;;;;;;5093285;28;20550;-66
2021/04/15 09:34:41;;;;;;;3.88;0.95;;;20.30;31.10;;;;;;5093320;28;20029;-66
2021/04/15 09:37:41;;;;;;;4.57;1.20;;;20.30;31.10;;;;;;5095972;28;20031;-66
2021/04/15 09:40:18;;;;;;;3.47;0.98;;;20.30;31.00;;;;;;5084513;28;20064;-66
2021/04/15 09:43:10;;;;;;;4.28;1.08;;;20.30;31.00;;;;;;5074734;28;20439;-66
2021/04/15 09:46:04;;;;;;;5.07;1.13;;;20.30;31.00;;;;;;5074661;28;20033;-66
2021/04/15 09:49:03;;;;;;;4.25;0.80;;;20.30;31.00;;;;;;5074839;28;20024;-66
2021/04/15 09:51:59;;;;;;;3.33;0.85;;;20.30;31.00;;;;;;5074586;28;20017;-66
2021/04/15 09:55:04;;;;;;;6.38;1.60;;;20.30;31.00;;;;;;5074228;28;20537;-66
2021/04/15 09:57:32;;;;;;;4.05;1.13;;;20.30;31.00;;;;;;5074474;28;20025;-67
2021/04/15 09:59:58;;;;;;;3.05;1.00;;;20.30;31.00;;;;;;5074351;28;20128;-66
2021/04/15 10:02:48;;;;;;;5.07;1.10;;;20.30;30.90;;;;;;5074257;28;20056;-66
2021/04/15 10:05:38;;;;;;;4.30;1.30;;;20.30;31.00;;;;;;5074319;28;20040;-66
2021/04/15 10:08:14;;;;;;;6.07;1.00;;;20.30;31.00;;;;;;5074250;28;20480;-67
2021/04/15 10:10:49;;;;;;;3.50;1.13;;;20.30;31.00;;;;;;5074131;28;20021;-66
2021/04/15 10:13:44;;;;;;;4.10;1.20;;;20.30;30.90;;;;;;5074108;28;20484;-66
2021/04/15 10:16:29;;;;;;;3.97;1.02;;;20.40;30.80;;;;;;5074238;28;20025;-66
2021/04/15 10:19:31;;;;;;;2.72;0.70;;;20.40;30.90;;;;;;5073966;28;20067;-66
2021/04/15 10:22:00;;;;;;;5.68;1.10;;;20.40;30.90;;;;;;5069979;28;20067;-66
2021/04/15 10:24:32;;;;;;;2.67;0.90;;;20.40;30.90;;;;;;5073877;28;20091;-67
2021/04/15 10:27:25;;;;;;;2.35;0.80;;;20.40;30.80;;;;;;5073924;28;20124;-66
2021/04/15 10:30:06;;;;;;;2.92;0.82;;;20.40;30.80;;;;;;5074220;28;20021;-67
2021/04/15 10:33:04;;;;;;;3.30;0.70;;;20.50;30.70;;;;;;5073846;28;20020;-67
2021/04/15 10:35:33;;;;;;;4.63;1.05;;;20.50;30.70;;;;;;5073719;28;20103;-67
2021/04/15 10:38:01;;;;;;;5.38;0.88;;;20.50;30.60;;;;;;5074101;28;20020;-67
2021/04/15 10:40:55;;;;;;;3.58;0.68;;;20.50;30.50;;;;;;5073503;28;20032;-67
2021/04/15 10:43:48;;;;;;;3.25;0.80;;;20.50;30.30;;;;;;5073711;28;20021;-67
2021/04/15 10:46:36;;;;;;;5.25;1.00;;;20.50;30.40;;;;;;5073393;28;20020;-67
2021/04/15 10:49:26;;;;;;;3.22;0.90;;;20.60;30.30;;;;;;5073572;28;20055;-67
2021/04/15 10:52:21;;;;;;;5.78;0.80;;;20.60;30.20;;;;;;5073809;28;20035;-67
2021/04/15 10:54:47;;;;;;;4.50;1.02;;;20.50;30.20;;;;;;5073644;28;20061;-67
2021/04/15 10:57:26;;;;;;;7.03;1.75;;;20.50;30.40;;;;;;5073271;28;20032;-67
2021/04/15 10:59:52;;;;;;;3.20;0.77;;;20.50;30.30;;;;;;5073429;28;20116;-67
2021/04/15 11:02:26;;;;;;;4.55;0.88;;;20.50;30.30;;;;;;5073524;28;20103;-68
2021/04/15 11:04:56;;;;;;;3.83;1.00;;;20.40;30.20;;;;;;5073546;28;20029;-67
2021/04/15 11:07:33;;;;;;;3.38;0.90;;;20.50;30.10;;;;;;5073205;28;20388;-66
2021/04/15 11:10:18;;;;;;;2.55;0.70;;;20.50;30.20;;;;;;5073342;28;20028;-65
2021/04/15 11:12:44;;;;;;;5.75;1.02;;;20.50;30.30;;;;;;5073223;28;20037;-67
2021/04/15 11:15:13;;;;;;;3.70;1.38;;;20.50;30.20;;;;;;5072958;28;20409;-66
2021/04/15 11:17:42;;;;;;;4.00;0.80;;;20.50;30.20;;;;;;5073512;28;20086;-66
2021/04/15 11:20:35;;;;;;;2.42;0.82;;;20.40;30.30;;;;;;5073464;28;20373;-66
2021/04/15 11:23:01;;;;;;;3.50;1.20;;;20.30;30.30;;;;;;5070613;28;20326;-66
2021/04/15 11:25:40;;;;;;;3.45;0.90;;;20.40;30.30;;;;;;5073080;28;20078;-66
2021/04/15 11:28:18;;;;;;;3.70;1.00;;;20.30;30.30;;;;;;5073436;28;20036;-66
2021/04/15 11:30:48;;;;;;;5.05;0.82;;;20.30;30.40;;;;;;5072973;28;20085;-68
2021/04/15 11:33:35;;;;;;;4.60;1.27;;;20.20;30.40;;;;;;5072528;28;20038;-68
2021/04/15 11:36:09;;;;;;;3.55;1.02;;;20.30;30.40;;;;;;5073061;28;20029;-66
2021/04/15 11:38:35;;;;;;;4.05;0.98;;;20.20;30.40;;;;;;5081374;28;20372;-66
2021/04/15 11:41:12;;;;;;;2.50;0.90;;;20.20;30.40;;;;;;5092793;28;20058;-63
2021/04/15 11:43:38;;;;;;;4.78;1.30;;;20.20;30.30;;;;;;5092674;28;20103;-65
2021/04/15 11:46:22;;;;;;;5.20;1.23;;;20.30;30.30;;;;;;5091618;28;20075;-65
2021/04/15 11:49:08;;;;;;;3.05;0.90;;;20.30;30.20;;;;;;5092055;28;20067;-64
2021/04/15 11:52:02;;;;;;;4.80;0.85;;;20.50;30.00;;;;;;5092996;28;20024;-64
2021/04/15 11:54:34;;;;;;;3.72;0.75;;;20.50;29.90;;;;;;5078978;28;20033;-63
2021/04/15 11:57:31;;;;;;;4.15;0.98;;;20.60;29.90;;;;;;5091864;28;20016;-66
2021/04/15 11:59:59;;;;;;;2.67;0.70;;;20.80;29.70;;;;;;5090816;28;20052;-65
2021/04/15 12:02:44;;;;;;;4.20;1.10;;;20.80;29.70;;;;;;5079400;28;20095;-65
2021/04/15 12:05:27;;;;;;;2.55;0.88;;;20.60;30.00;;;;;;5087307;28;20054;-66
2021/04/15 12:07:59;;;;;;;3.67;0.85;;;20.60;30.00;;;;;;5092864;28;20032;-65
2021/04/15 12:10:33;;;;;;;2.78;0.73;;;20.70;29.90;;;;;;5091960;28;20024;-64
2021/04/15 12:13:03;;;;;;;6.87;0.83;;;20.80;29.70;;;;;;5092573;28;20028;-66
2021/04/15 12:15:45;;;;;;;3.50;0.90;;;20.90;29.70;;;;;;5092589;28;20763;-64
2021/04/15 12:18:38;;;;;;;5.25;0.77;;;20.90;29.70;;;;;;5093840;28;20020;-65
2021/04/15 12:21:39;;;;;;;3.13;0.90;;;21.00;29.60;;;;;;5093920;28;20044;-65
2021/04/15 12:24:28;;;;;;;2.03;0.90;;;21.00;29.60;;;;;;5082047;28;20491;-64
2021/04/15 12:27:07;;;;;;;1.10;0.43;;;21.10;29.50;;;;;;5091437;28;20028;-65
2021/04/15 12:29:40;;;;;;;2.28;0.70;;;21.10;29.40;;;;;;5091654;28;20456;-65
2021/04/15 12:32:10;;;;;;;3.03;0.60;;;21.20;29.40;;;;;;5092199;28;20024;-65
2021/04/15 12:34:44;;;;;;;2.75;0.68;;;21.20;29.30;;;;;;5092117;28;20058;-65
2021/04/15 12:37:20;;;;;;;3.80;0.77;;;21.30;29.30;;;;;;5092277;28;20102;-65
2021/04/15 12:40:07;;;;;;;2.75;0.80;;;21.40;29.30;;;;;;5091920;28;20510;-68
2021/04/15 12:42:38;;;;;;;2.30;0.73;;;21.40;29.20;;;;;;5092242;28;20024;-67
2021/04/15 12:45:10;;;;;;;3.22;0.70;;;21.40;29.20;;;;;;5092943;28;20415;-66
2021/04/15 12:47:41;;;;;;;2.58;1.00;;;21.40;29.20;;;;;;5093015;28;20039;-65
2021/04/15 12:50:07;;;;;;;3.25;0.90;;;21.30;29.40;;;;;;5092050;28;20032;-65
2021/04/15 12:52:33;;;;;;;3.08;0.80;;;21.30;29.40;;;;;;5091187;28;20031;-64
2021/04/15 12:55:00;;;;;;;4.35;0.80;;;21.30;29.30;;;;;;5092127;28;20364;-66
2021/04/15 12:57:29;;;;;;;2.00;0.80;;;21.30;29.40;;;;;;5092061;28;20024;-66
2021/04/15 12:59:56;;;;;;;2.50;0.70;;;21.30;29.30;;;;;;5091650;28;20062;-66
2021/04/15 13:02:32;;;;;;;1.98;0.77;;;21.50;29.30;;;;;;5091778;28;20024;-67
2021/04/15 13:05:06;;;;;;;2.72;0.77;;;21.50;29.20;;;;;;5092235;28;20042;-65
2021/04/15 13:07:36;;;;;;;3.47;0.90;;;21.50;29.20;;;;;;5091864;28;20028;-65
2021/04/15 13:10:13;;;;;;;3.85;0.70;;;21.60;29.10;;;;;;5096072;28;20423;-64
2021/04/15 13:13:00;;;;;;;5.63;0.93;;;21.50;29.20;;;;;;5094949;28;20359;-64
2021/04/15 13:15:25;;;;;;;2.92;0.60;;;21.40;29.30;;;;;;5094537;28;20254;-64
2021/04/15 13:17:55;;;;;;;2.67;0.70;;;21.40;29.30;;;;;;5095248;28;20020;-65
2021/04/15 13:20:21;;;;;;;2.78;0.90;;;21.40;29.20;;;;;;5098793;28;20050;-65
2021/04/15 13:22:54;;;;;;;1.75;0.60;;;21.40;29.30;;;;;;5103506;28;20045;-65
2021/04/15 13:25:25;;;;;;;5.03;1.00;;;21.50;29.20;;;;;;5099159;28;20107;-65
2021/04/15 13:27:53;;;;;;;4.50;1.27;;;21.50;29.10;;;;;;5095590;28;20027;-64
2021/04/15 13:30:22;;;;;;;3.22;0.82;;;21.60;29.00;;;;;;5095355;28;20032;-65
2021/04/15 13:33:08;;;;;;;3.45;0.80;;;21.70;28.80;;;;;;5095090;28;20478;-66
2021/04/15 13:35:55;;;;;;;2.42;0.65;;;21.60;28.80;;;;;;5094630;28;20035;-65
2021/04/15 13:40:55;;;;;;;3.78;0.82;;;21.60;28.90;;;;;;5095024;28;20081;-65
2021/04/15 13:43:44;;;;;;;3.28;0.70;;;21.50;28.90;;;;;;5094519;28;20106;-65
2021/04/15 13:46:21;;;;;;;2.28;0.65;;;21.60;28.80;;;;;;5094404;28;20023;-66